createdAt,value
2019-01-31T00:00:44.801Z,64.00
2019-01-31T00:04:18.483Z,60.47
2019-01-31T00:07:52.224Z,59.73
2019-01-31T00:11:31.820Z,63.37
2019-01-31T00:14:50.653Z,64.07
2019-01-31T00:18:46.112Z,61.17
2019-01-31T00:22:37.989Z,58.23
2019-01-31T00:26:22.334Z,61.67
2019-01-31T00:29:59.339Z,64.67
2019-01-31T00:33:19.105Z,57.33
2019-01-31T00:36:47.817Z,62.97
2019-01-31T00:40:23.930Z,59.93
2019-01-31T00:44:21.582Z,69.63
2019-01-31T00:48:00.435Z,66.40
2019-01-31T00:51:37.700Z,65.47
2019-01-31T00:55:21.160Z,78.50
2019-01-31T00:59:04.468Z,66.90
2019-01-31T01:02:44.729Z,65.13
2019-01-31T01:06:23.475Z,67.23
2019-01-31T01:09:59.204Z,63.97
2019-01-31T01:13:52.096Z,65.53
2019-01-31T01:17:16.615Z,56.10
2019-01-31T01:20:41.894Z,51.20
2019-01-31T01:24:02.676Z,57.80
2019-01-31T01:27:42.926Z,53.50
2019-01-31T01:31:41.860Z,52.33
2019-01-31T01:35:34.450Z,48.17
2019-01-31T01:39:19.255Z,44.57
2019-01-31T01:42:42.107Z,40.10
2019-01-31T01:46:26.426Z,47.70
2019-01-31T01:50:02.392Z,51.20
2019-01-31T01:53:59.093Z,48.07
2019-01-31T01:57:35.295Z,45.27
2019-01-31T02:01:25.294Z,47.00
2019-01-31T02:05:09.560Z,46.23
2019-01-31T02:09:04.658Z,45.43
2019-01-31T02:12:42.159Z,56.17
2019-01-31T02:16:23.485Z,48.80
2019-01-31T02:20:18.745Z,53.27
2019-01-31T02:23:43.660Z,49.90
2019-01-31T02:27:13.413Z,51.43
2019-01-31T02:31:02.383Z,51.20
2019-01-31T02:34:48.267Z,54.03
2019-01-31T02:38:07.915Z,49.03
2019-01-31T02:41:29.231Z,49.77
2019-01-31T02:45:02.444Z,49.70
2019-01-31T02:48:18.132Z,52.30
2019-01-31T02:51:49.793Z,52.13
2019-01-31T02:55:39.319Z,49.93
2019-01-31T02:59:18.467Z,54.07
2019-01-31T03:02:40.599Z,46.33
2019-01-31T03:06:14.120Z,52.20
2019-01-31T03:10:03.906Z,49.43
2019-01-31T03:13:35.821Z,47.03
2019-01-31T03:17:17.157Z,55.13
2019-01-31T03:20:42.983Z,52.73
2019-01-31T03:24:30.428Z,88.53
2019-01-31T03:28:32.503Z,110.03
2019-01-31T03:32:03.916Z,47.30
2019-01-31T03:35:36.332Z,46.13
2019-01-31T03:39:26.905Z,45.37
2019-01-31T03:43:19.051Z,106.70
2019-01-31T03:47:08.328Z,33.40
2019-01-31T03:51:03.487Z,45.93
2019-01-31T03:54:53.798Z,78.37
2019-01-31T03:58:27.428Z,29.80
2019-01-31T04:01:49.152Z,27.80
2019-01-31T04:05:34.916Z,29.70
2019-01-31T04:08:40.886Z,81.70
2019-01-31T04:11:46.946Z,41.17
2019-01-31T04:14:52.802Z,40.67
2019-01-31T04:17:58.709Z,32.83
2019-01-31T04:21:04.651Z,34.63
2019-01-31T04:24:10.729Z,38.03
2019-01-31T04:27:16.607Z,74.93
2019-01-31T04:30:22.667Z,39.07
2019-01-31T04:33:28.622Z,32.33
2019-01-31T04:36:34.570Z,39.97
2019-01-31T04:39:40.432Z,41.60
2019-01-31T04:42:46.395Z,46.60
2019-01-31T04:45:52.257Z,41.30
2019-01-31T04:48:58.266Z,63.23
2019-01-31T04:52:05.312Z,44.70
2019-01-31T04:55:11.372Z,71.70
2019-01-31T04:58:17.216Z,238.70
2019-01-31T05:01:23.062Z,51.87
2019-01-31T05:04:28.913Z,98.73
2019-01-31T05:07:34.769Z,51.40
2019-01-31T05:10:43.327Z,39.73
2019-01-31T05:13:48.258Z,39.90
2019-01-31T05:16:54.089Z,32.43
2019-01-31T05:19:59.983Z,32.80
2019-01-31T05:23:06.019Z,31.97
2019-01-31T05:26:11.922Z,39.50
2019-01-31T05:29:17.837Z,52.60
2019-01-31T05:32:23.736Z,35.90
2019-01-31T05:35:29.777Z,34.77
2019-01-31T05:38:35.630Z,35.97
2019-01-31T05:41:41.613Z,34.43
2019-01-31T05:44:47.676Z,41.37
2019-01-31T05:47:53.502Z,38.63
2019-01-31T05:50:59.370Z,42.60
2019-01-31T05:54:05.535Z,60.80
2019-01-31T05:57:11.474Z,58.10
2019-01-31T06:00:22.599Z,49.80
2019-01-31T06:03:28.482Z,49.53
2019-01-31T06:06:34.358Z,57.13
2019-01-31T06:09:40.198Z,60.50
2019-01-31T06:12:46.182Z,62.30
2019-01-31T06:15:52.013Z,71.73
2019-01-31T06:18:57.895Z,77.63
2019-01-31T06:22:03.861Z,83.53
2019-01-31T06:25:09.923Z,78.30
2019-01-31T06:28:15.783Z,79.93
2019-01-31T06:31:21.640Z,83.50
2019-01-31T06:34:27.492Z,75.77
2019-01-31T06:37:33.350Z,68.83
2019-01-31T06:40:39.284Z,100.07
2019-01-31T06:43:45.136Z,57.00
2019-01-31T06:46:51.027Z,58.63
2019-01-31T06:49:56.879Z,67.47
2019-01-31T06:53:02.778Z,82.37
2019-01-31T06:56:08.732Z,69.13
2019-01-31T06:59:14.744Z,60.70
2019-01-31T07:02:20.618Z,74.40
2019-01-31T07:05:26.445Z,68.77
2019-01-31T07:08:32.279Z,76.97
2019-01-31T07:11:38.239Z,63.07
2019-01-31T07:14:44.096Z,68.67
2019-01-31T07:17:50.236Z,84.87
2019-01-31T07:20:56.196Z,81.07
2019-01-31T07:24:02.172Z,74.33
2019-01-31T07:27:07.994Z,61.40
2019-01-31T07:30:14.950Z,94.10
2019-01-31T07:33:20.808Z,64.90
2019-01-31T07:36:26.790Z,57.80
2019-01-31T07:39:32.734Z,73.33
2019-01-31T07:42:38.604Z,61.57
2019-01-31T07:45:44.719Z,67.50
2019-01-31T07:48:50.645Z,58.53
2019-01-31T07:51:56.501Z,64.43
2019-01-31T07:55:02.419Z,62.87
2019-01-31T07:58:08.345Z,57.27
2019-01-31T08:01:14.417Z,67.17
2019-01-31T08:04:20.270Z,75.53
2019-01-31T08:07:28.746Z,74.23
2019-01-31T08:10:37.948Z,65.20
2019-01-31T08:13:43.783Z,62.40
2019-01-31T08:16:49.658Z,76.93
2019-01-31T08:19:55.511Z,74.13
2019-01-31T08:23:01.569Z,87.23
2019-01-31T08:26:08.555Z,90.03
2019-01-31T08:29:14.589Z,95.83
2019-01-31T08:32:20.558Z,74.60
2019-01-31T08:35:26.512Z,48.73
2019-01-31T08:38:32.364Z,49.50
2019-01-31T08:41:38.316Z,42.90
2019-01-31T08:44:44.274Z,51.77
2019-01-31T08:47:50.306Z,43.27
2019-01-31T08:50:56.327Z,65.70
2019-01-31T08:54:02.209Z,46.63
2019-01-31T08:57:08.224Z,50.37
2019-01-31T09:00:22.730Z,28.97
2019-01-31T09:03:28.712Z,37.97
2019-01-31T09:06:34.679Z,37.10
2019-01-31T09:09:41.658Z,39.63
2019-01-31T09:12:47.655Z,40.13
2019-01-31T09:15:53.513Z,44.53
2019-01-31T09:18:59.293Z,51.43
2019-01-31T09:22:14.589Z,46.27
2019-01-31T09:25:52.555Z,50.73
2019-01-31T09:29:31.732Z,50.77
2019-01-31T09:33:28.853Z,58.83
2019-01-31T09:37:18.334Z,61.77
2019-01-31T09:40:54.175Z,68.63
2019-01-31T09:44:48.574Z,54.77
2019-01-31T09:48:34.543Z,45.70
2019-01-31T09:52:17.759Z,48.73
2019-01-31T09:55:57.307Z,54.67
2019-01-31T09:59:49.678Z,50.43
2019-01-31T10:03:34.707Z,57.20
2019-01-31T10:07:26.031Z,62.27
2019-01-31T10:11:14.522Z,68.20
2019-01-31T10:14:53.081Z,69.70
2019-01-31T10:18:24.626Z,83.43
2019-01-31T10:22:18.852Z,86.33
2019-01-31T10:26:11.139Z,80.87
2019-01-31T10:30:05.452Z,62.93
2019-01-31T10:33:42.434Z,59.00
2019-01-31T10:37:34.431Z,55.50
2019-01-31T10:41:12.954Z,56.50
2019-01-31T10:44:53.063Z,51.77
2019-01-31T10:48:44.178Z,49.77
2019-01-31T10:52:38.998Z,52.57
2019-01-31T10:56:19.726Z,51.77
2019-01-31T11:00:21.241Z,55.80
2019-01-31T11:04:15.425Z,52.47
2019-01-31T11:08:02.248Z,57.33
2019-01-31T11:11:24.684Z,48.33
2019-01-31T11:15:01.519Z,52.67
2019-01-31T11:18:48.815Z,57.97
2019-01-31T11:22:40.093Z,56.83
2019-01-31T11:26:35.598Z,58.93
2019-01-31T11:30:18.028Z,64.13
2019-01-31T11:34:14.702Z,62.90
2019-01-31T11:37:41.821Z,63.33
2019-01-31T11:41:31.384Z,67.53
2019-01-31T11:45:26.981Z,60.00
2019-01-31T11:49:09.395Z,59.00
2019-01-31T11:53:01.314Z,51.80
2019-01-31T11:56:28.243Z,58.17
2019-01-31T11:59:34.051Z,57.60
2019-01-31T12:02:39.990Z,62.03
2019-01-31T12:05:45.927Z,206.20
2019-01-31T12:08:51.725Z,49.27
2019-01-31T12:11:57.665Z,51.70
2019-01-31T12:15:03.673Z,56.33
2019-01-31T12:18:10.318Z,51.70
2019-01-31T12:21:16.259Z,159.63
2019-01-31T12:24:22.171Z,57.77
2019-01-31T12:27:28.082Z,54.30
2019-01-31T12:30:33.957Z,65.63
2019-01-31T12:33:39.785Z,57.33
2019-01-31T12:36:45.785Z,53.67
2019-01-31T12:39:52.186Z,81.47
2019-01-31T12:42:58.263Z,57.23
2019-01-31T12:46:04.358Z,58.33
2019-01-31T12:49:10.324Z,61.40
2019-01-31T12:52:16.251Z,66.47
2019-01-31T12:55:22.203Z,60.20
2019-01-31T12:58:33.750Z,76.93
2019-01-31T13:01:35.992Z,83.20
2019-01-31T13:04:41.998Z,73.73
2019-01-31T13:07:48.119Z,87.33
2019-01-31T13:10:54.056Z,96.53
2019-01-31T13:13:59.957Z,85.40
2019-01-31T13:17:07.260Z,95.23
2019-01-31T13:20:19.184Z,72.20
2019-01-31T13:23:25.282Z,101.23
2019-01-31T13:26:31.168Z,92.47
2019-01-31T13:29:37.017Z,64.37
2019-01-31T13:32:43.003Z,59.00
2019-01-31T13:35:49.573Z,76.80
2019-01-31T13:38:55.916Z,60.83
2019-01-31T13:42:01.840Z,74.03
2019-01-31T13:45:09.153Z,57.53
2019-01-31T13:48:16.620Z,63.13
2019-01-31T13:51:22.394Z,86.10
2019-01-31T13:54:28.690Z,79.23
2019-01-31T13:57:34.589Z,81.77
2019-01-31T14:00:40.571Z,144.47
2019-01-31T14:03:46.422Z,106.33
2019-01-31T14:06:52.529Z,89.27
2019-01-31T14:09:58.388Z,295.50
2019-01-31T14:13:04.383Z,376.80
2019-01-31T14:16:10.456Z,91.67
2019-01-31T14:19:16.432Z,88.87
2019-01-31T14:22:22.377Z,92.97
2019-01-31T14:25:28.453Z,193.27
2019-01-31T14:28:34.580Z,256.40
2019-01-31T14:31:40.520Z,146.93
2019-01-31T14:34:46.407Z,223.50
2019-01-31T14:37:52.373Z,166.10
2019-01-31T14:40:58.313Z,190.73
2019-01-31T14:44:04.595Z,151.87
2019-01-31T14:47:10.482Z,140.47
2019-01-31T14:50:20.356Z,158.03
2019-01-31T14:53:26.337Z,134.83
2019-01-31T14:56:32.189Z,112.30
2019-01-31T14:59:38.084Z,126.60
2019-01-31T15:02:43.954Z,122.40
2019-01-31T15:05:49.836Z,95.50
2019-01-31T15:08:55.760Z,98.37
2019-01-31T15:12:01.787Z,90.80
2019-01-31T15:15:08.819Z,84.63
2019-01-31T15:18:14.918Z,83.97
2019-01-31T15:21:20.944Z,82.63
2019-01-31T15:24:27.488Z,93.63
2019-01-31T15:27:33.477Z,88.17
2019-01-31T15:30:39.563Z,110.47
2019-01-31T15:33:45.401Z,84.80
2019-01-31T15:36:51.395Z,79.37
2019-01-31T15:39:59.449Z,77.80
2019-01-31T15:43:05.481Z,95.47
2019-01-31T15:46:11.509Z,78.83
2019-01-31T15:49:18.685Z,85.73
2019-01-31T15:52:24.670Z,80.97
2019-01-31T15:55:30.808Z,91.03
2019-01-31T15:58:36.896Z,87.90
2019-01-31T16:01:42.754Z,85.73
2019-01-31T16:04:48.779Z,82.77
2019-01-31T16:07:54.750Z,81.20
2019-01-31T16:11:00.766Z,84.97
2019-01-31T16:14:07.006Z,79.43
2019-01-31T16:17:13.108Z,76.57
2019-01-31T16:20:19.107Z,81.70
2019-01-31T16:23:25.236Z,82.67
2019-01-31T16:26:31.244Z,87.93
2019-01-31T16:29:37.104Z,74.50
2019-01-31T16:32:43.060Z,85.40
2019-01-31T16:35:49.726Z,84.97
2019-01-31T16:38:55.686Z,91.30
2019-01-31T16:42:01.665Z,76.23
2019-01-31T16:45:09.698Z,78.30
2019-01-31T16:48:15.702Z,74.50
2019-01-31T16:51:21.676Z,74.70
2019-01-31T16:54:27.648Z,79.70
2019-01-31T16:57:33.626Z,73.50
2019-01-31T17:00:39.683Z,85.40
2019-01-31T17:03:45.650Z,119.40
2019-01-31T17:06:51.607Z,110.80
2019-01-31T17:09:57.814Z,110.37
2019-01-31T17:13:04.319Z,103.10
2019-01-31T17:16:11.183Z,148.27
2019-01-31T17:19:17.283Z,114.50
2019-01-31T17:22:23.284Z,114.73
2019-01-31T17:25:29.343Z,104.07
2019-01-31T17:28:35.303Z,94.30
2019-01-31T17:31:41.411Z,88.47
2019-01-31T17:34:47.272Z,84.13
2019-01-31T17:37:53.241Z,76.97
2019-01-31T17:40:59.196Z,73.10
2019-01-31T17:44:05.346Z,65.07
2019-01-31T17:47:11.330Z,86.60
2019-01-31T17:50:17.697Z,79.40
2019-01-31T17:53:23.573Z,59.00
2019-01-31T17:56:29.444Z,60.00
2019-01-31T17:59:35.382Z,52.57
2019-01-31T18:02:45.501Z,55.10
2019-01-31T18:05:49.049Z,48.70
2019-01-31T18:08:54.874Z,43.80
2019-01-31T18:12:00.744Z,48.80
2019-01-31T18:15:07.695Z,34.47
2019-01-31T18:18:13.726Z,35.40
2019-01-31T18:21:19.659Z,26.63
2019-01-31T18:24:25.498Z,26.57
2019-01-31T18:27:31.355Z,13.17
2019-01-31T18:30:37.412Z,9.87
2019-01-31T18:33:43.233Z,4.90
2019-01-31T18:36:49.214Z,6.90
2019-01-31T18:39:55.092Z,6.57
2019-01-31T18:43:00.945Z,4.80
2019-01-31T18:46:07.129Z,4.57
2019-01-31T18:49:15.025Z,7.17
2019-01-31T18:52:20.968Z,4.20
2019-01-31T18:55:27.727Z,4.30
2019-01-31T18:58:33.574Z,5.40
2019-01-31T19:01:43.573Z,4.87
2019-01-31T19:04:49.524Z,9.60
2019-01-31T19:07:55.864Z,7.53
2019-01-31T19:11:02.064Z,8.77
2019-01-31T19:14:08.053Z,11.83
2019-01-31T19:17:13.988Z,7.80
2019-01-31T19:20:27.831Z,5.23
2019-01-31T19:23:33.794Z,7.30
2019-01-31T19:26:39.658Z,6.57
2019-01-31T19:29:49.444Z,7.87
2019-01-31T19:32:55.515Z,8.93
2019-01-31T19:36:01.347Z,7.70
2019-01-31T19:39:17.843Z,5.63
2019-01-31T19:42:25.556Z,4.80
2019-01-31T19:45:43.243Z,4.07
2019-01-31T19:48:57.171Z,6.83
2019-01-31T19:52:03.856Z,10.37
2019-01-31T19:55:11.722Z,7.30
2019-01-31T19:58:17.574Z,7.47
2019-01-31T20:01:23.437Z,12.60
2019-01-31T20:04:30.479Z,8.50
2019-01-31T20:07:36.546Z,12.37
2019-01-31T20:10:42.607Z,8.47
2019-01-31T20:13:48.665Z,7.60
2019-01-31T20:16:54.658Z,6.80
2019-01-31T20:20:00.544Z,7.60
2019-01-31T20:23:07.394Z,4.73
2019-01-31T20:26:13.361Z,3.33
2019-01-31T20:29:19.430Z,4.63
2019-01-31T20:32:25.309Z,3.67
2019-01-31T20:35:31.763Z,3.33
2019-01-31T20:38:38.048Z,5.53
2019-01-31T20:41:53.851Z,11.80
2019-01-31T20:44:52.808Z,4.63
2019-01-31T20:47:58.961Z,5.30
2019-01-31T20:51:06.005Z,5.60
2019-01-31T20:54:12.038Z,5.43
2019-01-31T20:57:17.957Z,4.63
2019-01-31T21:00:28.066Z,4.97
2019-01-31T21:03:34.021Z,6.90
2019-01-31T21:06:41.373Z,7.60
2019-01-31T21:09:47.747Z,4.23
2019-01-31T21:12:53.889Z,4.70
2019-01-31T21:15:59.852Z,5.33
2019-01-31T21:19:06.398Z,7.73
2019-01-31T21:22:12.303Z,10.30
2019-01-31T21:25:18.733Z,8.00
2019-01-31T21:28:24.544Z,6.70
2019-01-31T21:31:31.630Z,6.67
2019-01-31T21:34:38.817Z,7.93
2019-01-31T21:37:45.121Z,10.20
2019-01-31T21:40:51.066Z,14.13
2019-01-31T21:43:56.995Z,9.93
2019-01-31T21:47:03.605Z,11.10
2019-01-31T21:50:12.007Z,5.73
2019-01-31T21:53:18.011Z,8.43
2019-01-31T21:56:23.969Z,10.20
2019-01-31T21:59:29.925Z,8.37
2019-01-31T22:02:36.029Z,4.87
2019-01-31T22:05:42.011Z,6.90
2019-01-31T22:08:47.977Z,9.10
2019-01-31T22:11:53.804Z,6.07
2019-01-31T22:14:59.648Z,6.17
2019-01-31T22:18:07.320Z,4.17
2019-01-31T22:21:13.269Z,5.33
2019-01-31T22:24:19.297Z,3.80
2019-01-31T22:27:25.156Z,3.87
2019-01-31T22:30:36.559Z,5.03
2019-01-31T22:33:42.426Z,4.67
2019-01-31T22:36:48.385Z,5.30
2019-01-31T22:39:55.389Z,4.53
2019-01-31T22:43:01.548Z,4.60
2019-01-31T22:46:07.516Z,3.63
2019-01-31T22:49:13.341Z,5.97
2019-01-31T22:52:19.382Z,6.53
2019-01-31T22:55:26.422Z,5.10
2019-01-31T22:58:32.649Z,5.47
2019-01-31T23:01:44.865Z,5.90
2019-01-31T23:04:50.793Z,7.53
2019-01-31T23:07:56.843Z,5.67
2019-01-31T23:11:02.748Z,5.13
2019-01-31T23:14:08.827Z,4.73
2019-01-31T23:17:14.808Z,4.47
2019-01-31T23:20:20.650Z,4.00
2019-01-31T23:23:26.606Z,6.40
2019-01-31T23:26:32.706Z,5.43
2019-01-31T23:29:38.565Z,5.73
2019-01-31T23:32:44.614Z,4.67
2019-01-31T23:35:50.567Z,5.57
2019-01-31T23:38:57.497Z,6.13
2019-01-31T23:42:03.529Z,6.93
2019-01-31T23:45:12.061Z,6.57
2019-01-31T23:48:18.019Z,6.53
2019-01-31T23:51:24.061Z,6.00
2019-01-31T23:54:29.899Z,4.40
2019-01-31T23:57:35.927Z,5.20
